Time;durP1;ratioP1;P1;durP2;ratioP2;P2;SDS_P1;SDS_P2;PMS_P1;PMS_P2;Temp;Humidity;BMP_temperature;BMP_pressure;BME280_temperature;BME280_humidity;BME280_pressure;Samples;Min_cycle;Max_cycle;Signal;HPM_P1;HPM_P2
2022/07/11 00:02:24;;;;;;;5.70;3.60;;;18.00;99.60;;;;;;5103745;28;20428;-75
2022/07/11 00:05:10;;;;;;;4.73;3.60;;;18.00;99.90;;;;;;5083807;28;21060;-75
2022/07/11 00:07:56;;;;;;;3.23;2.93;;;17.80;99.90;;;;;;5089777;28;20558;-75
2022/07/11 00:10:43;;;;;;;7.50;3.97;;;17.90;99.90;;;;;;5090510;28;20613;-74
2022/07/11 00:13:29;;;;;;;5.50;3.70;;;17.80;99.90;;;;;;5089891;28;20469;-74
2022/07/11 00:16:14;;;;;;;7.60;3.60;;;17.80;99.90;;;;;;5089421;28;20531;-74
2022/07/11 00:19:00;;;;;;;6.47;3.47;;;17.80;99.90;;;;;;5088318;28;20539;-75
2022/07/11 00:21:46;;;;;;;5.13;3.40;;;17.80;99.90;;;;;;5089765;28;20462;-75
2022/07/11 00:24:31;;;;;;;6.87;3.93;;;17.80;99.90;;;;;;5083614;28;20472;-75
2022/07/11 00:27:18;;;;;;;4.70;2.80;;;17.70;99.90;;;;;;5088516;28;20437;-75
2022/07/11 00:30:05;;;;;;;3.23;2.93;;;17.60;99.90;;;;;;5087339;28;20907;-75
2022/07/11 00:32:51;;;;;;;4.70;3.47;;;17.50;99.90;;;;;;5087630;28;20833;-75
2022/07/11 00:35:36;;;;;;;7.27;3.83;;;17.50;99.90;;;;;;5085586;28;21034;-76
2022/07/11 00:38:22;;;;;;;5.03;3.73;;;17.50;99.90;;;;;;5089598;28;20461;-75
2022/07/11 00:41:08;;;;;;;4.30;3.67;;;17.50;99.90;;;;;;5087991;28;20465;-73
2022/07/11 00:43:57;;;;;;;5.33;3.60;;;17.50;99.90;;;;;;5086278;28;20433;-75
2022/07/11 00:46:43;;;;;;;4.57;3.40;;;17.50;99.90;;;;;;5088034;28;20484;-74
2022/07/11 00:49:28;;;;;;;4.80;3.90;;;17.50;99.90;;;;;;5089673;28;20565;-74
2022/07/11 00:52:14;;;;;;;3.80;3.10;;;17.60;99.90;;;;;;5090519;28;20551;-75
2022/07/11 00:55:00;;;;;;;3.97;3.60;;;17.50;99.90;;;;;;5085140;28;20453;-75
2022/07/11 00:57:45;;;;;;;4.20;3.60;;;17.40;99.90;;;;;;5089649;28;20466;-75
2022/07/11 01:00:32;;;;;;;3.50;3.20;;;17.30;99.90;;;;;;5088714;28;20469;-75
2022/07/11 01:03:18;;;;;;;8.43;3.87;;;17.10;99.90;;;;;;5087449;28;20434;-74
2022/07/11 01:06:04;;;;;;;4.97;3.30;;;17.00;99.90;;;;;;5086643;28;20442;-75
2022/07/11 01:08:50;;;;;;;5.10;2.93;;;17.00;99.90;;;;;;5087326;28;20576;-75
2022/07/11 01:11:36;;;;;;;8.43;4.13;;;16.90;99.90;;;;;;5089992;28;20592;-73
2022/07/11 01:14:21;;;;;;;5.07;4.03;;;16.80;99.90;;;;;;5087116;28;20445;-73
2022/07/11 01:17:09;;;;;;;5.93;3.73;;;16.80;99.90;;;;;;5088975;28;20457;-73
2022/07/11 01:19:54;;;;;;;4.30;3.50;;;16.80;99.90;;;;;;5101242;28;20498;-73
2022/07/11 01:22:44;;;;;;;5.90;3.57;;;16.70;99.90;;;;;;5091252;28;20437;-73
2022/07/11 01:25:32;;;;;;;4.93;4.00;;;16.70;99.90;;;;;;5079527;28;20483;-73
2022/07/11 01:28:17;;;;;;;4.67;3.70;;;16.70;99.90;;;;;;5089387;28;20453;-73
2022/07/11 01:31:03;;;;;;;5.27;4.10;;;16.60;99.90;;;;;;5088204;28;20492;-73
2022/07/11 01:33:49;;;;;;;4.37;3.90;;;16.60;99.90;;;;;;5084059;28;20512;-73
2022/07/11 01:36:35;;;;;;;5.00;3.50;;;16.60;99.90;;;;;;5089594;28;20804;-73
2022/07/11 01:39:20;;;;;;;4.50;4.00;;;16.50;99.90;;;;;;5086362;28;20446;-73
2022/07/11 01:42:08;;;;;;;5.43;3.60;;;16.50;99.90;;;;;;5089438;28;20464;-73
2022/07/11 01:44:54;;;;;;;5.10;3.50;;;16.50;99.90;;;;;;5084944;28;20588;-73
2022/07/11 01:47:40;;;;;;;4.23;3.40;;;16.60;99.90;;;;;;5087981;28;20438;-72
2022/07/11 01:50:26;;;;;;;4.30;3.60;;;16.70;99.90;;;;;;5088510;28;20519;-72
2022/07/11 01:53:11;;;;;;;6.20;3.17;;;16.80;99.90;;;;;;5083705;28;20470;-73
2022/07/11 01:55:57;;;;;;;4.73;3.37;;;16.90;99.90;;;;;;5088671;28;20437;-73
2022/07/11 01:58:43;;;;;;;8.73;3.40;;;16.90;99.90;;;;;;5086667;28;20589;-73
2022/07/11 02:01:29;;;;;;;3.60;3.30;;;17.00;99.90;;;;;;5088316;28;20449;-72
2022/07/11 02:04:15;;;;;;;9.53;3.57;;;17.00;99.90;;;;;;5083364;28;20457;-73
2022/07/11 02:07:01;;;;;;;4.87;3.83;;;16.90;99.90;;;;;;5088026;28;20465;-73
2022/07/11 02:09:46;;;;;;;3.53;3.23;;;16.80;99.90;;;;;;5086590;28;20989;-73
2022/07/11 02:12:32;;;;;;;8.43;3.77;;;16.90;99.90;;;;;;5085476;28;20508;-73
2022/07/11 02:15:19;;;;;;;5.40;3.77;;;17.00;99.90;;;;;;5082883;28;20496;-73
2022/07/11 02:18:05;;;;;;;4.60;3.70;;;17.10;99.90;;;;;;5087504;28;20445;-73
2022/07/11 02:20:51;;;;;;;4.30;3.90;;;17.10;99.90;;;;;;5087792;28;20588;-73
2022/07/11 02:23:36;;;;;;;4.77;3.40;;;17.10;99.90;;;;;;5080960;28;20459;-73
2022/07/11 02:26:22;;;;;;;5.67;4.20;;;17.10;99.90;;;;;;5082712;28;20592;-73
2022/07/11 02:29:08;;;;;;;3.73;3.40;;;17.10;99.90;;;;;;5085115;28;20486;-73
2022/07/11 02:31:55;;;;;;;5.83;3.70;;;17.10;99.90;;;;;;5090845;28;20480;-73
2022/07/11 02:34:41;;;;;;;4.60;3.33;;;17.20;99.90;;;;;;5090990;28;20507;-73
2022/07/11 02:37:27;;;;;;;5.17;3.50;;;17.20;99.90;;;;;;5089443;28;20825;-73
2022/07/11 02:40:13;;;;;;;4.43;3.57;;;17.20;99.90;;;;;;5093317;28;20519;-73
2022/07/11 02:42:58;;;;;;;4.70;3.97;;;17.20;99.90;;;;;;5092259;28;20781;-74
2022/07/11 02:45:44;;;;;;;5.77;4.43;;;17.20;99.90;;;;;;5084816;28;20444;-73
2022/07/11 02:48:31;;;;;;;4.30;3.90;;;17.10;99.90;;;;;;5089078;28;21004;-73
2022/07/11 02:51:18;;;;;;;7.00;3.63;;;17.00;99.90;;;;;;5089727;28;20856;-73
2022/07/11 02:54:04;;;;;;;3.90;3.37;;;17.10;99.90;;;;;;5086865;28;20835;-73
2022/07/11 02:56:50;;;;;;;4.07;3.67;;;17.10;99.90;;;;;;5092350;28;20449;-73
2022/07/11 02:59:35;;;;;;;4.43;3.60;;;17.10;99.90;;;;;;5087575;28;20457;-73
2022/07/11 03:02:21;;;;;;;6.93;4.13;;;17.20;99.90;;;;;;5092974;28;20496;-73
2022/07/11 03:05:09;;;;;;;4.30;3.90;;;17.20;99.90;;;;;;5089244;28;20460;-73
2022/07/11 03:07:55;;;;;;;7.37;3.90;;;17.20;99.90;;;;;;5088132;28;20442;-73
2022/07/11 03:10:40;;;;;;;6.27;5.20;;;17.20;99.90;;;;;;5093800;28;20457;-73
2022/07/11 03:13:26;;;;;;;4.17;3.50;;;17.20;99.90;;;;;;5086839;28;20467;-73
2022/07/11 03:16:12;;;;;;;4.97;3.60;;;17.20;99.90;;;;;;5088729;28;20523;-73
2022/07/11 03:18:58;;;;;;;3.80;3.43;;;17.20;99.90;;;;;;5090471;28;20442;-73
2022/07/11 03:21:45;;;;;;;7.90;3.80;;;17.10;99.90;;;;;;5089568;28;21118;-73
2022/07/11 03:24:31;;;;;;;5.03;3.80;;;17.00;99.90;;;;;;5084979;28;20437;-73
2022/07/11 03:27:16;;;;;;;4.90;3.90;;;17.10;99.90;;;;;;5092199;28;20786;-73
2022/07/11 03:30:03;;;;;;;4.20;3.80;;;17.20;99.90;;;;;;5089590;28;20556;-73
2022/07/11 03:32:48;;;;;;;7.20;4.33;;;17.20;99.90;;;;;;5090875;28;20572;-73
2022/07/11 03:35:43;;;;;;;9.20;4.07;;;17.20;99.90;;;;;;5092648;28;20905;-73
2022/07/11 03:38:30;;;;;;;6.60;4.03;;;17.20;99.90;;;;;;5105010;28;20438;-73
2022/07/11 03:41:15;;;;;;;3.83;3.50;;;17.20;99.90;;;;;;5091371;28;20520;-73
2022/07/11 03:44:01;;;;;;;6.43;4.00;;;17.30;99.90;;;;;;5077712;28;20414;-73
2022/07/11 03:46:47;;;;;;;6.27;3.77;;;17.30;99.90;;;;;;5090811;28;20563;-73
2022/07/11 03:49:33;;;;;;;5.17;3.43;;;17.40;99.90;;;;;;5078558;28;20570;-73
2022/07/11 03:52:19;;;;;;;5.20;4.20;;;17.40;99.90;;;;;;5091279;28;20996;-73
2022/07/11 03:55:06;;;;;;;3.80;3.37;;;17.40;99.90;;;;;;5091397;28;20473;-73
2022/07/11 03:57:52;;;;;;;4.50;3.50;;;17.40;99.90;;;;;;5103859;28;20978;-73
2022/07/11 04:00:38;;;;;;;4.47;3.87;;;17.40;99.90;;;;;;5092839;28;20527;-73
2022/07/11 04:03:24;;;;;;;4.30;3.90;;;17.30;99.90;;;;;;5085974;28;20779;-72
2022/07/11 04:06:10;;;;;;;5.00;3.80;;;17.40;99.90;;;;;;5078745;28;20495;-73
2022/07/11 04:08:55;;;;;;;7.40;3.90;;;17.40;99.90;;;;;;5097682;28;20439;-72
2022/07/11 04:11:42;;;;;;;5.90;4.20;;;17.30;99.90;;;;;;5072652;28;20517;-73
2022/07/11 04:14:28;;;;;;;5.47;4.10;;;17.30;99.90;;;;;;5074323;28;20458;-73
2022/07/11 04:17:14;;;;;;;5.50;4.10;;;17.30;99.90;;;;;;5087742;28;20425;-73
2022/07/11 04:19:59;;;;;;;5.47;3.80;;;17.30;99.90;;;;;;5091587;28;20442;-73
2022/07/11 04:22:45;;;;;;;4.17;3.77;;;17.30;99.90;;;;;;5085553;28;20897;-73
2022/07/11 04:25:31;;;;;;;7.80;4.00;;;17.30;99.90;;;;;;5089303;28;20444;-73
2022/07/11 04:28:18;;;;;;;5.20;4.30;;;17.40;99.90;;;;;;5088385;28;20992;-73
2022/07/11 04:31:04;;;;;;;4.80;3.87;;;17.30;99.90;;;;;;5088347;28;20973;-73
2022/07/11 04:33:49;;;;;;;5.40;3.90;;;17.40;99.90;;;;;;5086695;28;20489;-73
2022/07/11 04:36:35;;;;;;;4.37;3.97;;;17.40;99.90;;;;;;5085255;28;20528;-73
2022/07/11 04:39:21;;;;;;;4.60;3.47;;;17.40;99.90;;;;;;5089117;28;20445;-73
2022/07/11 04:42:07;;;;;;;5.60;4.47;;;17.30;99.90;;;;;;5086043;28;20667;-74
2022/07/11 04:44:54;;;;;;;8.47;4.50;;;17.30;99.90;;;;;;5087439;28;20444;-73
2022/07/11 04:47:40;;;;;;;5.70;4.40;;;17.40;99.90;;;;;;5087953;28;20461;-73
2022/07/11 04:50:26;;;;;;;6.40;5.37;;;17.40;99.90;;;;;;5087102;28;20462;-73
2022/07/11 04:53:11;;;;;;;8.10;5.00;;;17.50;99.90;;;;;;5082665;28;20462;-73
2022/07/11 04:55:57;;;;;;;4.10;3.70;;;17.50;99.90;;;;;;5085968;28;20438;-73
2022/07/11 04:58:43;;;;;;;6.50;3.80;;;17.50;99.90;;;;;;5088183;28;20978;-73
2022/07/11 05:01:30;;;;;;;7.00;4.30;;;17.50;99.90;;;;;;5084913;28;20468;-73
2022/07/11 05:04:15;;;;;;;5.47;4.03;;;17.60;99.90;;;;;;5087856;28;20445;-73
2022/07/11 05:07:01;;;;;;;5.23;4.30;;;17.60;99.90;;;;;;5089370;28;20433;-73
2022/07/11 05:09:47;;;;;;;5.40;4.57;;;17.60;99.90;;;;;;5089775;28;20457;-72
2022/07/11 05:12:32;;;;;;;4.27;3.87;;;17.60;99.90;;;;;;5087771;28;20503;-73
2022/07/11 05:15:18;;;;;;;6.83;4.33;;;17.50;99.90;;;;;;5087808;28;20804;-73
2022/07/11 05:18:05;;;;;;;5.37;4.27;;;17.60;99.90;;;;;;5085052;28;20434;-73
2022/07/11 05:20:50;;;;;;;4.23;3.70;;;17.70;99.90;;;;;;5086339;28;20470;-72
2022/07/11 05:23:36;;;;;;;5.33;4.17;;;17.70;99.90;;;;;;5082730;28;20429;-73
2022/07/11 05:26:21;;;;;;;6.07;4.63;;;17.70;99.90;;;;;;5087352;28;20445;-73
2022/07/11 05:29:07;;;;;;;7.30;4.50;;;17.70;99.90;;;;;;5088143;28;20538;-72
2022/07/11 05:31:53;;;;;;;4.73;4.33;;;17.80;99.90;;;;;;5086891;28;21001;-72
2022/07/11 05:34:40;;;;;;;5.00;4.50;;;17.80;99.90;;;;;;5085725;28;20477;-73
2022/07/11 05:37:25;;;;;;;5.00;4.47;;;17.90;99.90;;;;;;5096701;28;20983;-72
2022/07/11 05:40:12;;;;;;;4.50;4.10;;;17.90;99.90;;;;;;5085372;28;20603;-73
2022/07/11 05:42:57;;;;;;;4.87;4.30;;;18.00;99.90;;;;;;5085821;28;20441;-73
2022/07/11 05:45:43;;;;;;;7.20;4.90;;;18.00;99.90;;;;;;5091978;28;20862;-73
2022/07/11 05:48:29;;;;;;;6.77;4.20;;;18.00;99.90;;;;;;5084956;28;20648;-73
2022/07/11 05:51:18;;;;;;;5.47;4.57;;;18.00;99.90;;;;;;5085948;28;20462;-72
2022/07/11 05:54:04;;;;;;;4.40;4.00;;;18.00;99.90;;;;;;5086513;28;20474;-73
2022/07/11 05:56:50;;;;;;;6.77;4.00;;;18.00;99.90;;;;;;5088915;28;20484;-73
2022/07/11 05:59:37;;;;;;;5.07;4.47;;;18.10;99.90;;;;;;5088609;28;20446;-73
2022/07/11 06:02:23;;;;;;;6.43;3.93;;;18.20;99.90;;;;;;5086111;28;20458;-73
2022/07/11 06:05:11;;;;;;;6.20;4.60;;;18.30;99.90;;;;;;5092357;28;20446;-73
2022/07/11 06:11:01;;;;;;;7.33;3.87;;;18.30;99.90;;;;;;5087219;28;21183;-73
2022/07/11 06:13:47;;;;;;;4.10;3.70;;;18.30;99.90;;;;;;5092714;28;20473;-72
2022/07/11 06:16:33;;;;;;;14.10;4.13;;;18.40;99.90;;;;;;5089173;28;20446;-73
2022/07/11 06:19:19;;;;;;;4.77;3.93;;;18.40;99.90;;;;;;5091528;28;20522;-73
2022/07/11 06:22:05;;;;;;;5.70;3.80;;;18.50;99.90;;;;;;5089517;28;20462;-73
2022/07/11 06:24:51;;;;;;;7.60;3.90;;;18.60;99.90;;;;;;5091750;28;22419;-73
2022/07/11 06:27:37;;;;;;;5.20;3.53;;;18.60;99.90;;;;;;5089934;28;20461;-73
2022/07/11 06:30:23;;;;;;;4.80;3.63;;;18.70;99.90;;;;;;5091079;28;20469;-74
2022/07/11 06:33:08;;;;;;;3.80;3.23;;;18.80;99.90;;;;;;5091199;28;20491;-73
2022/07/11 06:35:54;;;;;;;7.60;4.17;;;18.90;99.90;;;;;;5091248;28;20534;-73
2022/07/11 06:38:40;;;;;;;5.60;4.33;;;18.90;99.90;;;;;;5092621;28;20975;-73
2022/07/11 06:41:27;;;;;;;6.17;3.50;;;19.00;99.90;;;;;;5089784;28;20465;-73
2022/07/11 06:44:13;;;;;;;7.07;4.43;;;19.20;99.90;;;;;;5093153;28;20980;-73
2022/07/11 06:46:59;;;;;;;4.43;3.90;;;19.20;99.90;;;;;;5093002;28;20571;-73
2022/07/11 06:49:44;;;;;;;6.40;3.80;;;19.20;99.90;;;;;;5102240;28;20428;-73
2022/07/11 06:52:30;;;;;;;6.20;4.07;;;19.20;99.90;;;;;;5091888;28;20528;-73
2022/07/11 06:55:17;;;;;;;9.33;3.90;;;19.20;99.90;;;;;;5090888;28;20604;-72
2022/07/11 06:58:05;;;;;;;6.33;3.20;;;19.30;99.90;;;;;;5091567;28;20454;-72
2022/07/11 07:00:50;;;;;;;6.20;3.80;;;19.30;99.90;;;;;;5082863;28;20473;-71
2022/07/11 07:03:36;;;;;;;12.80;5.47;;;19.40;99.90;;;;;;5092319;28;20957;-71
2022/07/11 07:06:22;;;;;;;4.03;3.63;;;19.50;99.90;;;;;;5094909;28;20962;-71
2022/07/11 07:09:08;;;;;;;6.93;3.73;;;19.50;99.90;;;;;;5089914;28;20489;-71
2022/07/11 07:11:54;;;;;;;10.53;3.97;;;19.60;99.90;;;;;;5098820;22;20858;-70
2022/07/11 07:14:41;;;;;;;7.50;3.20;;;19.70;99.90;;;;;;5089029;28;20475;-69
2022/07/11 07:17:27;;;;;;;5.53;3.40;;;19.80;99.90;;;;;;5082456;28;20508;-69
2022/07/11 07:20:13;;;;;;;6.73;2.90;;;19.60;97.00;;;;;;5082803;28;21118;-69
2022/07/11 07:22:59;;;;;;;7.23;3.20;;;19.60;97.00;;;;;;5073345;28;20446;-69
2022/07/11 07:25:45;;;;;;;3.60;3.03;;;19.70;97.60;;;;;;5065112;28;20960;-69
2022/07/11 07:28:31;;;;;;;4.07;3.03;;;19.70;97.80;;;;;;5061424;28;20443;-69
2022/07/11 07:31:17;;;;;;;4.53;3.10;;;19.80;97.80;;;;;;5063454;28;20483;-69
2022/07/11 07:34:03;;;;;;;5.10;3.00;;;19.90;97.60;;;;;;5069310;28;20494;-69
2022/07/11 07:36:49;;;;;;;8.07;3.93;;;20.10;97.80;;;;;;5065621;28;20477;-69
2022/07/11 07:39:34;;;;;;;6.10;3.27;;;20.00;94.30;;;;;;5063009;28;20521;-70
2022/07/11 07:42:20;;;;;;;6.00;3.40;;;20.00;94.60;;;;;;5065575;28;20477;-69
2022/07/11 07:45:06;;;;;;;7.13;3.80;;;20.10;94.80;;;;;;5060683;28;20521;-70
2022/07/11 07:47:53;;;;;;;6.30;3.50;;;20.20;95.20;;;;;;5066270;28;20451;-69
2022/07/11 07:50:39;;;;;;;9.97;3.43;;;20.20;94.80;;;;;;5063535;28;20939;-70
2022/07/11 07:53:24;;;;;;;6.50;3.80;;;20.30;94.40;;;;;;5069518;28;20811;-69
2022/07/11 07:56:10;;;;;;;6.30;3.80;;;20.30;94.00;;;;;;5071033;28;20469;-69
2022/07/11 07:58:56;;;;;;;11.60;4.40;;;20.20;93.10;;;;;;5063288;28;20455;-70
2022/07/11 08:01:45;;;;;;;6.10;3.93;;;20.00;93.20;;;;;;5062407;28;20878;-69
2022/07/11 08:04:32;;;;;;;6.00;3.20;;;19.80;93.60;;;;;;5064484;28;20470;-69
2022/07/11 08:07:18;;;;;;;6.27;3.17;;;19.70;94.10;;;;;;5069542;28;20916;-69
2022/07/11 08:10:06;;;;;;;3.60;3.03;;;19.70;94.40;;;;;;5070613;28;20795;-69
2022/07/11 08:12:51;;;;;;;7.77;4.10;;;19.80;94.90;;;;;;5052718;28;20497;-69
2022/07/11 08:15:37;;;;;;;8.93;3.77;;;20.10;94.90;;;;;;5068818;28;20873;-70
2022/07/11 08:18:23;;;;;;;5.33;3.43;;;20.20;93.60;;;;;;5070688;28;20499;-69
2022/07/11 08:21:10;;;;;;;8.50;3.63;;;20.40;93.60;;;;;;5064889;28;20601;-70
2022/07/11 08:23:56;;;;;;;5.43;3.60;;;20.40;92.20;;;;;;5063418;28;20569;-70
2022/07/11 08:26:42;;;;;;;7.50;3.77;;;20.30;91.70;;;;;;5052364;28;20432;-70
2022/07/11 08:29:27;;;;;;;5.67;3.93;;;20.40;92.20;;;;;;5065232;28;20489;-69
2022/07/11 08:32:13;;;;;;;5.17;3.33;;;20.40;91.40;;;;;;5071142;28;20558;-69
2022/07/11 08:34:59;;;;;;;6.93;3.40;;;20.50;91.40;;;;;;5060392;28;20687;-69
2022/07/11 08:37:46;;;;;;;6.57;3.30;;;20.60;92.00;;;;;;5065447;28;20434;-69
2022/07/11 08:40:32;;;;;;;4.90;2.90;;;20.90;92.00;;;;;;5057179;28;20496;-69
2022/07/11 08:43:18;;;;;;;5.60;2.90;;;21.10;90.90;;;;;;5064278;28;20453;-70
2022/07/11 08:46:06;;;;;;;5.50;2.80;;;21.20;90.10;;;;;;5062711;28;20439;-70
2022/07/11 08:48:53;;;;;;;6.83;3.07;;;21.30;87.50;;;;;;5060589;28;22043;-70
2022/07/11 08:51:39;;;;;;;8.13;3.40;;;21.30;85.20;;;;;;5066170;28;20587;-70
2022/07/11 08:54:27;;;;;;;6.77;3.13;;;21.10;84.20;;;;;;5063747;28;20579;-69
2022/07/11 08:57:13;;;;;;;8.13;3.43;;;20.90;84.60;;;;;;5067033;28;20475;-70
2022/07/11 08:59:59;;;;;;;7.60;3.60;;;20.80;87.60;;;;;;5064869;28;20794;-69
2022/07/11 09:02:46;;;;;;;13.27;2.90;;;20.70;86.30;;;;;;5059538;28;21117;-70
2022/07/11 09:05:32;;;;;;;3.93;2.53;;;20.50;86.40;;;;;;5065375;28;21000;-70
2022/07/11 09:08:18;;;;;;;7.63;2.87;;;20.40;88.30;;;;;;5059804;28;20945;-69
2022/07/11 09:11:06;;;;;;;6.23;3.00;;;20.40;87.90;;;;;;5063230;28;20470;-70
2022/07/11 09:13:52;;;;;;;7.40;3.07;;;20.50;86.90;;;;;;5055225;28;20968;-70
2022/07/11 09:16:52;;;;;;;4.93;3.03;;;20.60;87.00;;;;;;5064004;28;20461;-69
2022/07/11 09:19:39;;;;;;;4.27;3.20;;;20.70;86.00;;;;;;5059086;28;20443;-70
2022/07/11 09:25:31;;;;;;;6.83;3.10;;;20.80;88.40;;;;;;5068905;28;20793;-70
2022/07/11 09:28:24;;;;;;;3.73;2.30;;;20.80;84.60;;;;;;5067254;28;20441;-69
2022/07/11 09:31:17;;;;;;;4.10;2.10;;;20.90;80.00;;;;;;5061940;28;20807;-69
2022/07/11 09:34:06;;;;;;;3.93;2.77;;;21.00;80.80;;;;;;5056059;28;20443;-71
2022/07/11 09:36:54;;;;;;;7.90;3.40;;;21.10;80.70;;;;;;5066630;28;20419;-71
2022/07/11 09:39:39;;;;;;;5.60;2.63;;;21.20;80.80;;;;;;5068657;28;20994;-71
2022/07/11 09:42:46;;;;;;;9.40;2.80;;;21.20;80.30;;;;;;5070606;28;20472;-71
2022/07/11 09:45:34;;;;;;;6.17;3.00;;;21.10;80.60;;;;;;5070697;28;20418;-71
2022/07/11 09:48:21;;;;;;;4.40;3.40;;;21.10;82.40;;;;;;5071396;28;20423;-71
2022/07/11 09:51:07;;;;;;;4.57;2.87;;;21.20;81.50;;;;;;5069156;28;20462;-71
2022/07/11 09:53:57;;;;;;;5.50;2.83;;;21.20;81.50;;;;;;5064357;28;20443;-71
2022/07/11 09:56:51;;;;;;;3.87;2.50;;;21.20;81.50;;;;;;5069950;28;20461;-71
2022/07/11 09:59:37;;;;;;;7.07;2.70;;;21.30;81.30;;;;;;5062907;28;20452;-71
2022/07/11 10:02:25;;;;;;;5.73;3.33;;;21.50;82.00;;;;;;5050687;28;20452;-71
2022/07/11 10:05:11;;;;;;;5.53;2.60;;;21.70;78.50;;;;;;5059876;28;20536;-71
2022/07/11 10:07:57;;;;;;;3.00;2.30;;;21.90;77.60;;;;;;5070053;28;20568;-71
2022/07/11 10:10:43;;;;;;;3.70;2.80;;;21.90;75.40;;;;;;5068388;28;20827;-71
2022/07/11 10:13:30;;;;;;;6.13;2.67;;;21.80;73.90;;;;;;5070698;28;20410;-71
2022/07/11 10:16:28;;;;;;;8.80;3.07;;;21.80;75.30;;;;;;5070325;28;20822;-70
2022/07/11 10:19:26;;;;;;;12.43;3.17;;;21.90;75.90;;;;;;5060870;28;21067;-70
2022/07/11 10:22:20;;;;;;;5.33;3.13;;;22.00;74.90;;;;;;5068282;28;20454;-70
2022/07/11 10:25:17;;;;;;;3.47;2.43;;;22.20;74.80;;;;;;5065283;28;20439;-70
2022/07/11 10:28:14;;;;;;;4.03;2.13;;;22.20;72.90;;;;;;5058793;28;20645;-70
2022/07/11 10:31:00;;;;;;;5.33;1.80;;;22.30;75.10;;;;;;5063824;28;20775;-70
2022/07/11 10:34:02;;;;;;;8.03;2.50;;;22.30;67.40;;;;;;5061838;28;20448;-70
2022/07/11 10:36:50;;;;;;;3.90;1.70;;;22.40;63.80;;;;;;5073806;28;20484;-70
2022/07/11 10:39:37;;;;;;;4.73;2.40;;;22.50;64.70;;;;;;5068024;28;20440;-70
2022/07/11 10:42:23;;;;;;;4.33;2.90;;;22.70;67.10;;;;;;5065799;28;20462;-70
2022/07/11 10:45:10;;;;;;;6.83;2.53;;;22.40;66.20;;;;;;5068830;28;20430;-70
2022/07/11 10:48:11;;;;;;;3.60;2.40;;;22.10;68.30;;;;;;5062189;28;20455;-70
2022/07/11 10:51:23;;;;;;;5.87;2.70;;;21.90;69.40;;;;;;5066062;28;20467;-70
2022/07/11 10:54:26;;;;;;;4.80;2.37;;;21.70;70.40;;;;;;5074414;28;20441;-70
2022/07/11 10:57:18;;;;;;;5.77;2.97;;;21.60;72.00;;;;;;5064225;28;20482;-70
2022/07/11 11:00:05;;;;;;;5.47;2.77;;;21.60;71.20;;;;;;5060110;28;20446;-70
2022/07/11 11:03:05;;;;;;;7.27;3.73;;;21.70;72.00;;;;;;5056580;28;20987;-70
2022/07/11 11:05:53;;;;;;;6.13;2.60;;;21.70;73.30;;;;;;5068624;28;20481;-70
2022/07/11 11:08:47;;;;;;;2.70;1.90;;;21.90;72.80;;;;;;5070549;28;20504;-70
2022/07/11 11:11:41;;;;;;;5.47;2.57;;;22.00;71.40;;;;;;5073802;28;20453;-70
2022/07/11 11:14:27;;;;;;;6.37;2.30;;;22.20;71.30;;;;;;5072953;28;20423;-70
2022/07/11 11:17:38;;;;;;;3.93;2.07;;;22.40;66.90;;;;;;5053686;28;20545;-70
2022/07/11 11:20:32;;;;;;;6.00;2.20;;;22.50;67.50;;;;;;5071454;28;20443;-70
2022/07/11 11:23:24;;;;;;;3.30;2.40;;;22.40;65.60;;;;;;5070877;28;20443;-70
2022/07/11 11:26:11;;;;;;;4.63;2.60;;;22.30;66.20;;;;;;5060303;28;20538;-70
2022/07/11 11:28:59;;;;;;;6.13;2.93;;;22.20;66.70;;;;;;5058499;28;20446;-70
2022/07/11 11:31:50;;;;;;;5.07;2.73;;;22.10;67.60;;;;;;5067524;28;20466;-70
2022/07/11 11:34:35;;;;;;;6.57;2.50;;;22.10;66.60;;;;;;5071824;28;20525;-70
2022/07/11 11:37:22;;;;;;;5.97;2.37;;;22.20;67.60;;;;;;5065924;28;20465;-70
2022/07/11 11:40:09;;;;;;;4.80;2.50;;;22.20;70.30;;;;;;5070531;28;20437;-70
2022/07/11 11:42:55;;;;;;;4.00;2.70;;;22.20;69.90;;;;;;5064002;28;20458;-70
2022/07/11 11:45:49;;;;;;;3.87;2.47;;;22.20;69.20;;;;;;5072551;28;20458;-70
2022/07/11 11:48:37;;;;;;;6.43;2.77;;;22.20;68.20;;;;;;5065013;28;20455;-70
2022/07/11 11:51:23;;;;;;;8.63;2.80;;;22.10;69.30;;;;;;5069400;28;20471;-70
2022/07/11 11:54:09;;;;;;;3.87;2.70;;;22.10;68.20;;;;;;5065890;28;21188;-70
2022/07/11 11:56:57;;;;;;;4.40;2.50;;;22.10;68.60;;;;;;5073601;28;20523;-70
2022/07/11 11:59:43;;;;;;;3.73;2.70;;;22.10;67.80;;;;;;5067616;28;20570;-70
2022/07/11 12:02:31;;;;;;;4.53;2.67;;;22.30;68.90;;;;;;5071874;28;20983;-70
2022/07/11 12:05:17;;;;;;;5.30;3.30;;;22.50;67.00;;;;;;5068886;28;20449;-70
2022/07/11 12:08:03;;;;;;;7.83;2.93;;;22.70;65.00;;;;;;5068447;28;20588;-70
2022/07/11 12:10:54;;;;;;;5.50;2.80;;;22.70;63.40;;;;;;5074544;28;20471;-70
2022/07/11 12:13:40;;;;;;;3.37;2.80;;;22.70;63.60;;;;;;5069756;28;20493;-70
2022/07/11 12:16:42;;;;;;;2.93;2.47;;;22.80;63.90;;;;;;5054597;28;20474;-70
2022/07/11 12:19:35;;;;;;;3.07;2.00;;;22.80;67.20;;;;;;5069606;28;20582;-70
2022/07/11 12:22:20;;;;;;;2.93;2.20;;;22.70;67.90;;;;;;5071659;28;21093;-70
2022/07/11 12:25:10;;;;;;;3.80;3.00;;;22.70;67.80;;;;;;5068992;28;20445;-70
2022/07/11 12:27:57;;;;;;;3.50;2.50;;;22.60;67.10;;;;;;5071236;28;20495;-70
2022/07/11 12:30:43;;;;;;;6.10;2.80;;;22.60;67.00;;;;;;5065704;28;20962;-70
2022/07/11 12:33:29;;;;;;;5.17;2.63;;;22.70;65.90;;;;;;5065860;28;20533;-70
2022/07/11 12:36:16;;;;;;;5.90;2.60;;;22.80;66.20;;;;;;5069723;28;20477;-70
2022/07/11 12:39:02;;;;;;;12.10;2.27;;;22.70;65.00;;;;;;5058083;28;20984;-70
2022/07/11 12:41:47;;;;;;;7.57;2.70;;;22.60;64.80;;;;;;5063330;28;21010;-70
2022/07/11 12:47:38;;;;;;;4.90;2.37;;;22.50;64.70;;;;;;5065857;28;20433;-70
2022/07/11 12:50:26;;;;;;;7.93;2.53;;;22.60;62.90;;;;;;5066766;28;20446;-70
2022/07/11 12:53:17;;;;;;;5.40;2.30;;;22.70;63.00;;;;;;5066878;28;20453;-70
2022/07/11 12:56:03;;;;;;;10.83;2.40;;;22.90;63.40;;;;;;5067502;28;20834;-70
2022/07/11 12:58:49;;;;;;;3.13;2.33;;;23.30;63.90;;;;;;5062502;28;20943;-70
2022/07/11 13:01:36;;;;;;;5.63;2.10;;;23.60;62.40;;;;;;5066462;28;20478;-70
2022/07/11 13:04:30;;;;;;;3.80;2.37;;;23.70;57.30;;;;;;5063851;28;20892;-70
2022/07/11 13:10:50;;;;;;;3.67;2.60;;;23.60;61.30;;;;;;5061504;28;20447;-70
2022/07/11 13:13:22;;;;;;;4.47;2.53;;;23.40;57.50;;;;;;5078775;28;20855;-71
2022/07/11 13:16:08;;;;;;;7.30;3.27;;;23.40;59.30;;;;;;5077973;28;20615;-71
2022/07/11 13:18:54;;;;;;;3.50;2.67;;;23.40;56.90;;;;;;5083789;28;20450;-71
2022/07/11 13:21:40;;;;;;;3.63;2.60;;;23.40;58.30;;;;;;5083161;28;20509;-71
2022/07/11 13:24:25;;;;;;;6.10;3.10;;;23.50;59.40;;;;;;5081425;28;20909;-71
2022/07/11 13:27:12;;;;;;;3.60;2.23;;;23.80;59.50;;;;;;5082174;28;20449;-71
2022/07/11 13:29:58;;;;;;;2.97;2.20;;;24.10;57.70;;;;;;5087272;28;20466;-71
2022/07/11 13:32:45;;;;;;;3.90;1.80;;;24.20;56.00;;;;;;5074393;28;20572;-71
2022/07/11 13:35:30;;;;;;;4.20;2.50;;;24.20;53.30;;;;;;5080883;28;20445;-71
2022/07/11 13:38:16;;;;;;;3.50;2.00;;;24.20;53.40;;;;;;5085408;28;20794;-71
2022/07/11 13:41:02;;;;;;;2.63;2.03;;;24.30;48.20;;;;;;5074779;28;20423;-71
2022/07/11 13:43:49;;;;;;;3.90;2.03;;;24.10;53.10;;;;;;5082582;28;20475;-71
2022/07/11 13:46:35;;;;;;;4.13;2.27;;;24.00;53.60;;;;;;5094846;28;20446;-71
2022/07/11 13:49:21;;;;;;;3.10;2.20;;;23.80;51.90;;;;;;5083666;28;20503;-71
2022/07/11 13:52:07;;;;;;;7.80;2.57;;;23.70;54.30;;;;;;5107777;28;20444;-71
2022/07/11 13:54:52;;;;;;;6.93;2.00;;;23.70;53.40;;;;;;5083994;28;20588;-71
2022/07/11 13:57:38;;;;;;;2.80;2.10;;;23.60;55.00;;;;;;5082468;28;20839;-71
2022/07/11 14:00:28;;;;;;;3.60;2.27;;;23.70;57.30;;;;;;5091146;28;20446;-71
2022/07/11 14:03:14;;;;;;;2.50;1.73;;;23.80;57.40;;;;;;5088035;28;20885;-71
2022/07/11 14:05:59;;;;;;;3.43;2.33;;;24.00;55.00;;;;;;5086786;28;20577;-71
2022/07/11 14:08:45;;;;;;;4.80;2.20;;;24.30;51.20;;;;;;5086116;28;20603;-71
2022/07/11 14:11:31;;;;;;;2.90;2.00;;;24.50;51.20;;;;;;5087196;28;20608;-71
2022/07/11 14:14:17;;;;;;;5.70;2.10;;;24.50;53.10;;;;;;5085717;28;20477;-71
2022/07/11 14:17:05;;;;;;;4.00;2.00;;;24.40;52.60;;;;;;5081481;28;20465;-71
2022/07/11 14:19:51;;;;;;;3.93;1.80;;;24.40;52.50;;;;;;5085489;28;20442;-71
2022/07/11 14:22:36;;;;;;;2.47;2.00;;;24.70;47.10;;;;;;5086325;28;20867;-71
2022/07/11 14:25:23;;;;;;;3.10;1.80;;;24.90;44.80;;;;;;5087217;28;20457;-71
2022/07/11 14:28:08;;;;;;;4.73;1.83;;;24.90;44.80;;;;;;5088140;28;20715;-71
2022/07/11 14:30:54;;;;;;;9.40;1.90;;;24.90;46.30;;;;;;5087930;28;20525;-71
2022/07/11 14:33:41;;;;;;;8.50;2.07;;;25.00;48.30;;;;;;5091742;28;20519;-71
2022/07/11 14:36:27;;;;;;;7.70;2.20;;;25.20;47.30;;;;;;5086070;28;20620;-71
2022/07/11 14:39:13;;;;;;;3.37;2.10;;;25.30;45.10;;;;;;5091092;28;20507;-71
2022/07/11 14:41:59;;;;;;;2.90;2.10;;;25.40;45.20;;;;;;5087534;28;20481;-71